Time;durP1;ratioP1;P1;durP2;ratioP2;P2;SDS_P1;SDS_P2;PMS_P1;PMS_P2;Temp;Humidity;BMP_temperature;BMP_pressure;BME280_temperature;BME280_humidity;BME280_pressure;Samples;Min_cycle;Max_cycle;Signal;HPM_P1;HPM_P2
2023/03/29 00:00:13;;;;;;;2.05;1.33;;;5.90;99.90;;;;;;4985230;28;20108;-77
2023/03/29 00:02:39;;;;;;;;;;;5.80;99.90;;;;;;4985850;28;20448;-77
2023/03/29 00:05:05;;;;;;;5.18;1.90;;;5.80;99.90;;;;;;4985670;28;20309;-78
2023/03/29 00:07:34;;;;;;;2.22;1.30;;;5.80;99.90;;;;;;4985109;28;20089;-77
2023/03/29 00:10:01;;;;;;;3.92;1.42;;;5.80;99.90;;;;;;4985915;28;20423;-76
2023/03/29 00:12:27;;;;;;;2.55;1.83;;;5.80;99.90;;;;;;4986621;28;20049;-77
2023/03/29 00:14:53;;;;;;;2.33;1.27;;;5.80;99.90;;;;;;4984406;28;20125;-77
2023/03/29 00:17:18;;;;;;;1.77;1.67;;;5.80;99.90;;;;;;4984748;28;20130;-77
2023/03/29 00:19:45;;;;;;;4.55;1.48;;;5.80;99.90;;;;;;4968242;28;20049;-77
2023/03/29 00:22:11;;;;;;;2.38;1.20;;;5.80;99.90;;;;;;4983535;28;20054;-77
2023/03/29 00:24:36;;;;;;;2.45;1.33;;;5.80;99.90;;;;;;4984655;28;20041;-78
2023/03/29 00:27:02;;;;;;;3.40;1.85;;;5.80;99.90;;;;;;4968218;28;20050;-77
2023/03/29 00:29:28;;;;;;;3.58;1.70;;;5.80;99.90;;;;;;4986374;28;20042;-77
2023/03/29 00:31:54;;;;;;;5.60;1.70;;;5.80;99.90;;;;;;4984395;28;20050;-78
2023/03/29 00:34:21;;;;;;;2.80;1.45;;;5.80;99.90;;;;;;4985432;28;20414;-77
2023/03/29 00:36:49;;;;;;;3.63;1.35;;;5.80;99.90;;;;;;4983513;28;20430;-78
2023/03/29 00:39:19;;;;;;;2.35;1.27;;;5.90;99.90;;;;;;4985029;28;20035;-78
2023/03/29 00:41:45;;;;;;;2.97;1.27;;;5.80;99.90;;;;;;4985519;28;20100;-77
2023/03/29 00:44:49;;;;;;;1.80;1.20;;;5.80;99.90;;;;;;4985559;28;20403;-78
2023/03/29 00:47:17;;;;;;;3.10;1.50;;;5.80;99.90;;;;;;4967864;28;20046;-77
2023/03/29 00:49:44;;;;;;;3.00;1.52;;;5.80;99.90;;;;;;4985456;28;20039;-77
2023/03/29 00:52:12;;;;;;;6.95;1.48;;;5.80;99.90;;;;;;4982683;28;20057;-77
2023/03/29 00:54:39;;;;;;;1.50;1.25;;;5.80;99.90;;;;;;4985284;28;20046;-77
2023/03/29 00:57:08;;;;;;;3.38;1.23;;;5.80;99.90;;;;;;4983934;28;20125;-78
2023/03/29 00:59:34;;;;;;;4.13;1.63;;;5.80;99.90;;;;;;4984079;28;20104;-78
2023/03/29 01:02:04;;;;;;;2.70;1.50;;;5.80;99.90;;;;;;4985177;28;20038;-77
2023/03/29 01:04:35;;;;;;;2.33;1.40;;;5.80;99.90;;;;;;4985243;28;20069;-77
2023/03/29 01:07:20;;;;;;;2.10;1.23;;;5.80;99.90;;;;;;4982694;28;20050;-78
2023/03/29 01:09:53;;;;;;;2.40;1.25;;;5.80;99.90;;;;;;4985068;28;20073;-77
2023/03/29 01:12:28;;;;;;;1.52;1.17;;;5.80;99.90;;;;;;4983231;28;20050;-77
2023/03/29 01:14:58;;;;;;;2.53;1.48;;;5.80;99.90;;;;;;4967458;28;20038;-77
2023/03/29 01:17:25;;;;;;;2.30;1.55;;;5.80;99.90;;;;;;4983872;28;20050;-77
2023/03/29 01:20:19;;;;;;;3.17;1.50;;;5.80;99.90;;;;;;4983559;28;20038;-78
2023/03/29 01:22:53;;;;;;;1.75;1.35;;;5.70;99.90;;;;;;4983147;28;20054;-77
2023/03/29 01:25:44;;;;;;;1.80;1.30;;;5.70;99.90;;;;;;4983112;28;20129;-77
2023/03/29 01:28:14;;;;;;;2.00;1.23;;;5.70;99.90;;;;;;4983250;28;20134;-77
2023/03/29 01:30:50;;;;;;;2.03;1.10;;;5.70;99.90;;;;;;4984648;28;20050;-77
2023/03/29 01:33:24;;;;;;;3.55;1.35;;;5.70;99.90;;;;;;4984713;28;20121;-77
2023/03/29 01:36:06;;;;;;;1.50;1.25;;;5.70;99.90;;;;;;4983620;28;20054;-77
2023/03/29 01:38:35;;;;;;;;;;;5.70;99.90;;;;;;4983370;28;20050;-77
2023/03/29 01:41:02;;;;;;;1.63;0.80;;;5.70;99.90;;;;;;4999362;28;19921;-77
2023/03/29 01:43:37;;;;;;;1.60;1.13;;;5.70;99.90;;;;;;4984748;28;20066;-77
2023/03/29 01:46:17;;;;;;;5.18;1.30;;;5.70;99.90;;;;;;4974669;28;20455;-77
2023/03/29 01:49:00;;;;;;;2.03;1.02;;;5.70;99.90;;;;;;4979988;28;20511;-78
2023/03/29 01:51:58;;;;;;;1.92;1.10;;;5.70;99.90;;;;;;4964383;28;20483;-78
2023/03/29 01:54:36;;;;;;;3.42;0.98;;;5.70;99.90;;;;;;4965357;28;20046;-77
2023/03/29 01:57:04;;;;;;;1.25;0.77;;;5.70;99.90;;;;;;4984518;28;20042;-77
2023/03/29 01:59:33;;;;;;;3.55;1.00;;;5.70;99.90;;;;;;4983275;28;20039;-78
2023/03/29 02:02:03;;;;;;;2.20;1.25;;;5.70;99.90;;;;;;4984032;28;20065;-77
2023/03/29 02:04:36;;;;;;;2.15;1.08;;;5.70;99.90;;;;;;4984268;28;20560;-78
2023/03/29 02:07:06;;;;;;;0.60;0.40;;;5.70;99.90;;;;;;4966084;28;20101;-77
2023/03/29 02:09:33;;;;;;;2.08;0.90;;;5.70;99.90;;;;;;4984916;28;20042;-78
2023/03/29 02:12:01;;;;;;;1.08;0.77;;;5.70;99.90;;;;;;4984786;28;20057;-77
2023/03/29 02:14:28;;;;;;;1.63;1.00;;;5.70;99.90;;;;;;4999717;28;20038;-77
2023/03/29 02:16:53;;;;;;;1.80;1.13;;;5.70;99.90;;;;;;4984660;28;20053;-78
2023/03/29 02:19:20;;;;;;;1.77;0.85;;;5.70;99.90;;;;;;4998940;28;20278;-78
2023/03/29 02:22:02;;;;;;;2.47;1.35;;;5.70;99.90;;;;;;4983420;28;20042;-77
2023/03/29 02:24:31;;;;;;;3.83;1.13;;;5.70;99.90;;;;;;4983297;28;20481;-78
2023/03/29 02:26:57;;;;;;;5.40;1.17;;;5.70;99.90;;;;;;4984425;28;20035;-78
2023/03/29 02:29:24;;;;;;;2.78;1.02;;;5.70;99.90;;;;;;4983002;28;20552;-78
2023/03/29 02:31:56;;;;;;;1.27;0.88;;;5.70;99.90;;;;;;4984487;28;20054;-78
2023/03/29 02:34:37;;;;;;;1.73;1.17;;;5.70;99.90;;;;;;4999275;28;20053;-77
2023/03/29 02:37:09;;;;;;;1.60;1.00;;;5.70;99.90;;;;;;4982863;28;20078;-77
2023/03/29 02:39:35;;;;;;;2.57;1.10;;;5.70;99.90;;;;;;4982829;28;20104;-78
2023/03/29 02:42:02;;;;;;;2.83;1.00;;;5.70;99.90;;;;;;4982949;28;20130;-77
2023/03/29 02:44:32;;;;;;;0.93;0.80;;;5.70;99.90;;;;;;4983145;28;20093;-77
2023/03/29 02:47:27;;;;;;;2.67;0.70;;;5.70;99.90;;;;;;4983827;28;20082;-77
2023/03/29 02:49:53;;;;;;;1.95;1.50;;;5.70;99.90;;;;;;4969986;28;20048;-77
2023/03/29 02:52:32;;;;;;;1.70;0.82;;;5.70;99.90;;;;;;4986523;28;20409;-78
2023/03/29 02:54:59;;;;;;;1.63;1.10;;;5.70;99.90;;;;;;4986481;28;20043;-77
2023/03/29 02:57:25;;;;;;;2.90;1.40;;;5.70;99.90;;;;;;4986926;28;20050;-77
2023/03/29 02:59:53;;;;;;;1.02;0.63;;;5.70;99.90;;;;;;4987359;28;20065;-77
2023/03/29 03:02:19;;;;;;;1.40;0.80;;;5.70;99.90;;;;;;4969699;28;20050;-76
2023/03/29 03:04:45;;;;;;;1.70;0.60;;;5.70;99.90;;;;;;4985917;28;20053;-78
2023/03/29 03:07:10;;;;;;;1.92;0.98;;;5.70;99.90;;;;;;5000656;28;20094;-78
2023/03/29 03:09:36;;;;;;;1.75;0.90;;;5.70;99.90;;;;;;4987679;28;20042;-77
2023/03/29 03:12:02;;;;;;;2.05;1.10;;;5.70;99.90;;;;;;4987165;28;20063;-78
2023/03/29 03:14:28;;;;;;;1.95;1.10;;;5.70;99.90;;;;;;4986381;28;20042;-77
2023/03/29 03:16:54;;;;;;;1.23;1.00;;;5.70;99.90;;;;;;4985770;28;20133;-78
2023/03/29 03:19:20;;;;;;;3.75;1.13;;;5.70;99.90;;;;;;4985296;28;20137;-77
2023/03/29 03:21:45;;;;;;;1.77;1.20;;;5.70;99.90;;;;;;4986605;28;20121;-77
2023/03/29 03:24:11;;;;;;;1.45;0.90;;;5.70;99.90;;;;;;4985626;28;20555;-78
2023/03/29 03:26:37;;;;;;;2.28;1.25;;;5.70;99.90;;;;;;4986676;28;20121;-78
2023/03/29 03:29:03;;;;;;;2.03;0.90;;;5.70;99.90;;;;;;4986975;28;20125;-77
2023/03/29 03:31:29;;;;;;;1.50;1.20;;;5.70;99.90;;;;;;4986822;28;20069;-77
2023/03/29 03:33:55;;;;;;;1.10;1.00;;;5.70;99.90;;;;;;4987144;28;20523;-77
2023/03/29 03:36:24;;;;;;;2.55;1.13;;;5.70;99.90;;;;;;4985747;28;20450;-77
2023/03/29 03:38:53;;;;;;;4.05;1.25;;;5.70;99.90;;;;;;4986686;28;20113;-77
2023/03/29 03:41:19;;;;;;;0.82;0.82;;;5.80;99.90;;;;;;4985173;28;20593;-77
2023/03/29 03:43:47;;;;;;;1.92;1.17;;;5.70;99.90;;;;;;4985496;28;20097;-77
2023/03/29 03:46:15;;;;;;;2.75;1.98;;;5.70;99.90;;;;;;4984667;28;20137;-77
2023/03/29 03:48:40;;;;;;;2.03;1.33;;;5.70;99.90;;;;;;4986259;28;20516;-77
2023/03/29 03:51:06;;;;;;;1.80;1.00;;;5.80;99.90;;;;;;4985654;28;20121;-77
2023/03/29 03:53:32;;;;;;;1.60;1.08;;;5.70;99.90;;;;;;4986395;28;20457;-77
2023/03/29 03:56:00;;;;;;;2.72;1.55;;;5.70;99.90;;;;;;4986663;28;20054;-77
2023/03/29 03:58:26;;;;;;;2.13;1.23;;;5.80;99.90;;;;;;4984903;28;20058;-77
2023/03/29 04:00:52;;;;;;;2.78;1.20;;;5.80;99.90;;;;;;4986184;28;20067;-77
2023/03/29 04:03:17;;;;;;;1.63;1.10;;;5.80;99.90;;;;;;4985746;28;20125;-77
2023/03/29 04:05:44;;;;;;;2.22;1.10;;;5.70;99.90;;;;;;4986092;28;20129;-77
2023/03/29 04:08:11;;;;;;;2.38;0.90;;;5.70;99.90;;;;;;4984634;28;20523;-77
2023/03/29 04:10:38;;;;;;;1.63;1.52;;;5.80;99.90;;;;;;4986451;28;20137;-78
2023/03/29 04:13:04;;;;;;;2.00;0.95;;;5.80;99.90;;;;;;4985848;28;20635;-77
2023/03/29 04:15:31;;;;;;;3.90;1.33;;;5.80;99.90;;;;;;4984572;28;20042;-77
2023/03/29 04:17:58;;;;;;;4.40;1.70;;;5.80;99.90;;;;;;4986492;28;20038;-77
2023/03/29 04:20:25;;;;;;;2.30;1.50;;;5.80;99.90;;;;;;4984519;28;20054;-77
2023/03/29 04:22:52;;;;;;;3.30;1.40;;;5.80;99.90;;;;;;4984099;28;20062;-76
2023/03/29 04:25:20;;;;;;;3.53;1.00;;;5.80;99.90;;;;;;4984564;28;20052;-78
2023/03/29 04:27:46;;;;;;;1.80;1.15;;;5.80;99.90;;;;;;4985661;28;20082;-78
2023/03/29 04:30:12;;;;;;;2.38;1.67;;;5.70;99.90;;;;;;4985502;28;20041;-76
2023/03/29 04:32:38;;;;;;;2.00;1.08;;;5.80;99.90;;;;;;4985808;28;20042;-77
2023/03/29 04:35:04;;;;;;;3.88;1.60;;;5.80;99.90;;;;;;4984012;28;20053;-77
2023/03/29 04:37:31;;;;;;;4.35;2.40;;;5.80;99.90;;;;;;4983805;28;20046;-77
2023/03/29 04:39:59;;;;;;;2.03;1.23;;;5.80;99.90;;;;;;4986317;28;20137;-77
2023/03/29 04:42:26;;;;;;;2.30;1.20;;;5.80;99.90;;;;;;4984202;28;20049;-77
2023/03/29 04:44:52;;;;;;;2.95;1.70;;;5.80;99.90;;;;;;4985800;28;20050;-77
2023/03/29 04:47:18;;;;;;;2.08;1.38;;;5.80;99.90;;;;;;4984005;28;20061;-77
2023/03/29 04:49:44;;;;;;;1.38;1.13;;;5.80;99.90;;;;;;4984302;28;20046;-77
2023/03/29 04:52:10;;;;;;;2.00;1.50;;;5.80;99.90;;;;;;4984292;28;20053;-77
2023/03/29 04:54:36;;;;;;;3.95;1.50;;;5.80;99.90;;;;;;4985256;28;20054;-77
2023/03/29 04:57:03;;;;;;;1.92;1.38;;;5.80;99.90;;;;;;5000123;28;20517;-77
2023/03/29 04:59:28;;;;;;;4.78;1.80;;;5.80;99.90;;;;;;5001019;28;20577;-78
2023/03/29 05:01:54;;;;;;;1.70;1.17;;;5.80;99.90;;;;;;4985207;28;20082;-77
2023/03/29 05:04:19;;;;;;;3.85;1.70;;;5.80;99.90;;;;;;4984869;28;20042;-77
2023/03/29 05:06:46;;;;;;;4.47;1.58;;;5.80;99.90;;;;;;4982565;28;20144;-77
2023/03/29 05:09:11;;;;;;;2.50;1.23;;;5.80;99.90;;;;;;5001070;28;20062;-77
2023/03/29 05:11:37;;;;;;;2.45;1.40;;;5.80;99.90;;;;;;5003132;28;20040;-78
2023/03/29 05:14:06;;;;;;;4.63;1.55;;;5.80;99.90;;;;;;4990882;28;20483;-77
2023/03/29 05:16:33;;;;;;;4.43;1.73;;;5.80;99.90;;;;;;4985523;28;20089;-77
2023/03/29 05:18:59;;;;;;;3.25;1.45;;;5.90;99.90;;;;;;4984397;28;20112;-77
2023/03/29 05:21:27;;;;;;;9.05;1.50;;;5.90;99.90;;;;;;4984244;28;20060;-77
2023/03/29 05:23:53;;;;;;;3.60;1.48;;;5.80;99.90;;;;;;4985072;28;20681;-77
2023/03/29 05:26:22;;;;;;;4.72;1.95;;;5.90;99.90;;;;;;4984368;28;20086;-76
2023/03/29 05:28:48;;;;;;;3.10;1.67;;;5.90;99.90;;;;;;4984469;28;20070;-77
2023/03/29 05:31:15;;;;;;;3.25;1.83;;;5.90;99.90;;;;;;4983755;28;20383;-76
2023/03/29 05:33:41;;;;;;;3.33;2.13;;;5.90;99.90;;;;;;4984636;28;20113;-77
2023/03/29 05:36:09;;;;;;;5.28;1.75;;;5.90;99.90;;;;;;4983230;28;20473;-77
2023/03/29 05:38:35;;;;;;;8.65;2.72;;;5.90;99.90;;;;;;4984022;28;20104;-77
2023/03/29 05:41:02;;;;;;;4.45;1.80;;;5.90;99.90;;;;;;4983724;28;20499;-76
2023/03/29 05:43:27;;;;;;;3.53;2.13;;;5.90;99.90;;;;;;4986268;28;20065;-76
2023/03/29 05:45:54;;;;;;;4.00;2.20;;;6.00;99.90;;;;;;4986309;28;20087;-76
2023/03/29 05:48:22;;;;;;;6.40;3.25;;;6.00;99.90;;;;;;4984425;28;20592;-77
2023/03/29 05:50:49;;;;;;;3.50;2.33;;;5.90;99.90;;;;;;4990612;28;20078;-76
2023/03/29 05:53:15;;;;;;;4.28;2.30;;;6.00;99.90;;;;;;4984709;28;20038;-77
2023/03/29 05:55:41;;;;;;;3.42;2.50;;;6.00;99.90;;;;;;4969480;28;20065;-78
2023/03/29 05:58:07;;;;;;;5.35;2.75;;;6.00;99.90;;;;;;4984664;28;20827;-82
2023/03/29 06:00:35;;;;;;;5.20;2.17;;;6.00;99.90;;;;;;4989963;28;20041;-84
2023/03/29 06:03:01;;;;;;;7.28;1.98;;;6.00;99.90;;;;;;4987680;28;20050;-80
2023/03/29 06:05:27;;;;;;;7.68;2.20;;;6.00;99.90;;;;;;4974322;28;20072;-79
2023/03/29 06:07:53;;;;;;;4.45;2.13;;;6.00;99.90;;;;;;4983039;28;20116;-78
2023/03/29 06:10:19;;;;;;;5.40;2.40;;;6.00;99.90;;;;;;4995171;28;20054;-77
2023/03/29 06:12:45;;;;;;;4.50;2.35;;;6.00;99.90;;;;;;4983729;28;20180;-77
2023/03/29 06:15:12;;;;;;;3.50;2.10;;;6.00;99.90;;;;;;4981708;28;20084;-81
2023/03/29 06:17:38;;;;;;;4.70;2.50;;;6.10;99.90;;;;;;4982068;28;20038;-78
2023/03/29 06:20:09;;;;;;;5.38;2.58;;;6.10;99.90;;;;;;4965473;28;20069;-80
2023/03/29 06:22:38;;;;;;;5.50;2.72;;;6.10;99.90;;;;;;4965315;28;20058;-82
2023/03/29 06:25:05;;;;;;;5.45;2.90;;;6.10;99.90;;;;;;4986985;28;20084;-79
2023/03/29 06:27:31;;;;;;;6.20;2.70;;;6.10;99.90;;;;;;4986631;28;20043;-84
2023/03/29 06:29:58;;;;;;;6.40;3.33;;;6.20;99.90;;;;;;4986714;28;20127;-83
2023/03/29 06:32:24;;;;;;;5.30;2.53;;;6.20;99.90;;;;;;4987099;28;20070;-77
2023/03/29 06:34:50;;;;;;;8.57;2.85;;;6.20;99.90;;;;;;4987684;28;20043;-84
2023/03/29 06:37:16;;;;;;;5.82;2.90;;;6.20;99.90;;;;;;4985198;28;20070;-82
2023/03/29 06:39:42;;;;;;;5.70;2.42;;;6.20;99.90;;;;;;4987145;28;20053;-80
2023/03/29 06:42:08;;;;;;;5.95;2.85;;;6.20;99.90;;;;;;4986927;28;20522;-81
2023/03/29 06:44:34;;;;;;;6.78;2.78;;;6.30;99.90;;;;;;4986548;28;20121;-79
2023/03/29 06:47:00;;;;;;;2.80;1.98;;;6.30;99.90;;;;;;4985463;28;20182;-76
2023/03/29 06:49:26;;;;;;;6.45;2.67;;;6.30;99.90;;;;;;4987829;28;20042;-83
2023/03/29 06:51:52;;;;;;;4.38;2.33;;;6.30;99.90;;;;;;4984237;28;20057;-80
2023/03/29 06:54:18;;;;;;;6.60;3.47;;;6.40;99.90;;;;;;4986243;28;20074;-83
2023/03/29 06:56:46;;;;;;;3.88;2.00;;;6.40;99.90;;;;;;5001624;28;20408;-78
2023/03/29 06:59:12;;;;;;;5.10;2.90;;;6.40;99.90;;;;;;4986659;28;20039;-80
2023/03/29 07:01:38;;;;;;;4.55;2.33;;;6.40;99.90;;;;;;4986316;28;20042;-83
2023/03/29 07:04:07;;;;;;;5.28;2.42;;;6.50;99.90;;;;;;4985961;28;20046;-80
2023/03/29 07:06:35;;;;;;;5.30;2.88;;;6.50;99.90;;;;;;4983605;28;20054;-79
2023/03/29 07:09:05;;;;;;;6.53;3.22;;;6.50;99.90;;;;;;4986608;28;20140;-82
2023/03/29 07:11:32;;;;;;;4.72;2.90;;;6.50;99.90;;;;;;4985508;28;20054;-79
2023/03/29 07:13:58;;;;;;;5.05;2.63;;;6.50;99.90;;;;;;4987044;28;20057;-81
2023/03/29 07:16:24;;;;;;;4.18;2.47;;;6.60;99.90;;;;;;4984817;28;20386;-84
2023/03/29 07:18:50;;;;;;;6.07;2.75;;;6.60;99.90;;;;;;4985004;28;20058;-83
2023/03/29 07:21:16;;;;;;;3.47;2.28;;;6.60;99.90;;;;;;4999910;28;20040;-79
2023/03/29 07:23:42;;;;;;;9.38;2.83;;;6.70;99.90;;;;;;4984391;28;20057;-84
2023/03/29 07:26:08;;;;;;;6.60;2.10;;;6.70;99.90;;;;;;4985464;28;20342;-80
2023/03/29 07:28:36;;;;;;;6.97;3.17;;;6.70;99.90;;;;;;4998993;28;20552;-84
2023/03/29 07:31:05;;;;;;;7.20;3.17;;;6.80;99.90;;;;;;5005136;28;20049;-83
2023/03/29 07:33:31;;;;;;;5.85;2.88;;;6.80;99.90;;;;;;5015768;28;20046;-81
2023/03/29 07:35:57;;;;;;;6.75;3.13;;;6.90;99.90;;;;;;4983956;28;20050;-77
2023/03/29 07:38:24;;;;;;;9.55;3.47;;;6.90;99.90;;;;;;4985645;28;20046;-83
2023/03/29 07:40:50;;;;;;;5.80;2.67;;;6.90;99.90;;;;;;4986076;28;20425;-80
2023/03/29 07:43:17;;;;;;;6.03;3.30;;;7.00;99.90;;;;;;4985611;28;20057;-80
2023/03/29 07:45:43;;;;;;;5.03;2.50;;;7.10;99.90;;;;;;4985369;28;20073;-75
2023/03/29 07:48:09;;;;;;;4.57;3.05;;;7.00;99.90;;;;;;4983814;28;20104;-80
2023/03/29 07:50:35;;;;;;;8.48;3.35;;;7.10;99.90;;;;;;4986306;28;20452;-77
2023/03/29 07:53:01;;;;;;;7.28;2.92;;;7.10;99.90;;;;;;4984978;28;20319;-83
2023/03/29 07:55:27;;;;;;;6.65;2.47;;;7.10;99.90;;;;;;4985908;28;20046;-77
2023/03/29 07:57:54;;;;;;;4.57;2.58;;;7.20;99.90;;;;;;4984756;28;20121;-84
2023/03/29 08:00:20;;;;;;;7.88;3.20;;;7.20;99.90;;;;;;4985353;28;20042;-80
2023/03/29 08:02:48;;;;;;;5.78;2.72;;;7.20;99.90;;;;;;4985972;28;20042;-82
2023/03/29 08:05:16;;;;;;;7.28;2.45;;;7.20;99.90;;;;;;4992418;28;20046;-83
2023/03/29 08:07:44;;;;;;;4.55;2.15;;;7.20;99.90;;;;;;5002530;28;20285;-77
2023/03/29 08:10:12;;;;;;;3.40;2.30;;;7.30;99.90;;;;;;4987074;28;20503;-75
2023/03/29 08:12:40;;;;;;;4.90;2.78;;;7.30;99.90;;;;;;4999258;28;20042;-80
2023/03/29 08:15:08;;;;;;;5.93;3.25;;;7.40;99.90;;;;;;5004071;28;20387;-81
2023/03/29 08:17:35;;;;;;;5.93;2.75;;;7.30;99.90;;;;;;5004439;28;20046;-80
2023/03/29 08:20:01;;;;;;;5.45;2.60;;;7.40;99.90;;;;;;5002920;28;20096;-76
2023/03/29 08:22:27;;;;;;;5.38;2.30;;;7.40;99.90;;;;;;5017863;28;20096;-81
2023/03/29 08:24:53;;;;;;;6.40;2.70;;;7.50;99.90;;;;;;5002488;28;20042;-76
2023/03/29 08:27:19;;;;;;;7.90;2.92;;;7.50;99.90;;;;;;5004216;28;20076;-80
2023/03/29 08:29:44;;;;;;;9.85;3.40;;;7.50;99.90;;;;;;5004047;28;20053;-80
2023/03/29 08:32:10;;;;;;;7.10;2.75;;;7.60;99.90;;;;;;5002892;28;20046;-78
2023/03/29 08:34:36;;;;;;;5.65;2.50;;;7.60;99.90;;;;;;5004115;28;20048;-81
2023/03/29 08:37:03;;;;;;;7.97;3.63;;;7.60;99.90;;;;;;5001500;28;20420;-76
2023/03/29 08:39:28;;;;;;;8.07;2.90;;;7.70;99.90;;;;;;5005303;28;20389;-81
2023/03/29 08:42:15;;;;;;;4.75;2.50;;;7.70;99.90;;;;;;5003726;28;20045;-81
2023/03/29 08:44:41;;;;;;;4.57;2.30;;;7.70;99.90;;;;;;5001742;28;20496;-80
2023/03/29 08:47:27;;;;;;;5.40;2.15;;;7.70;99.90;;;;;;4996758;28;20066;-78
2023/03/29 08:49:55;;;;;;;4.63;2.45;;;7.80;99.90;;;;;;4966946;28;20041;-79
2023/03/29 08:52:33;;;;;;;6.10;2.53;;;7.90;99.90;;;;;;4982696;28;20569;-80
2023/03/29 08:55:04;;;;;;;6.63;2.63;;;7.90;99.90;;;;;;4999931;28;20394;-77
2023/03/29 08:57:34;;;;;;;4.93;2.72;;;7.90;99.90;;;;;;4984446;28;20042;-78
2023/03/29 09:00:04;;;;;;;6.72;3.60;;;8.00;99.90;;;;;;4984065;28;20042;-81
2023/03/29 09:02:32;;;;;;;6.32;2.50;;;8.00;99.90;;;;;;4983144;28;20035;-75
2023/03/29 09:05:07;;;;;;;5.45;3.83;;;8.10;99.90;;;;;;4982556;28;20050;-79
2023/03/29 09:07:33;;;;;;;3.95;2.13;;;8.10;99.90;;;;;;4984103;28;20077;-80
2023/03/29 09:09:59;;;;;;;8.45;2.80;;;8.10;99.90;;;;;;4984085;28;20387;-79
2023/03/29 09:12:39;;;;;;;7.03;2.78;;;8.20;99.90;;;;;;4999469;28;20058;-81
2023/03/29 09:15:14;;;;;;;8.30;3.17;;;8.20;99.90;;;;;;4981971;28;20358;-81
2023/03/29 09:17:46;;;;;;;6.75;3.30;;;8.30;99.90;;;;;;4983567;28;20088;-82
2023/03/29 09:20:26;;;;;;;12.38;3.97;;;8.30;99.90;;;;;;4981325;28;20050;-81
2023/03/29 09:23:24;;;;;;;4.82;2.75;;;8.30;99.90;;;;;;4982190;28;20093;-79
2023/03/29 09:26:18;;;;;;;4.68;2.35;;;8.40;99.90;;;;;;4983948;28;20502;-81
2023/03/29 09:28:59;;;;;;;5.43;2.78;;;8.40;99.90;;;;;;4966089;28;20062;-78
2023/03/29 09:31:30;;;;;;;6.90;3.10;;;8.40;99.90;;;;;;4984263;28;20050;-79
2023/03/29 09:34:21;;;;;;;8.77;2.97;;;8.50;99.90;;;;;;4983166;28;20038;-81
2023/03/29 09:37:01;;;;;;;5.20;2.85;;;8.50;99.90;;;;;;4981571;28;20057;-78
2023/03/29 09:39:27;;;;;;;5.45;3.28;;;8.50;99.90;;;;;;4982354;28;20044;-81
2023/03/29 09:42:02;;;;;;;9.63;4.05;;;8.60;99.90;;;;;;4983480;28;20098;-77
2023/03/29 09:44:37;;;;;;;6.32;3.25;;;8.60;99.90;;;;;;4983609;28;20038;-83
2023/03/29 09:47:17;;;;;;;8.25;3.83;;;8.70;99.90;;;;;;4986602;28;20043;-83
2023/03/29 09:49:46;;;;;;;9.23;3.80;;;8.70;99.90;;;;;;4998294;28;20050;-75
2023/03/29 09:52:15;;;;;;;6.07;2.65;;;8.70;99.90;;;;;;4982657;28;20073;-83
2023/03/29 09:54:41;;;;;;;8.70;3.42;;;8.80;99.90;;;;;;4981232;28;20038;-82
2023/03/29 09:57:11;;;;;;;7.50;2.75;;;8.70;99.90;;;;;;4984410;28;20438;-82
2023/03/29 09:59:37;;;;;;;5.82;2.50;;;8.80;99.90;;;;;;4986085;28;20438;-81
2023/03/29 10:02:09;;;;;;;7.38;3.10;;;8.80;99.90;;;;;;4987579;28;20043;-83
2023/03/29 10:04:35;;;;;;;11.25;2.92;;;8.80;99.90;;;;;;4986260;28;20046;-80
2023/03/29 10:07:02;;;;;;;9.00;3.33;;;8.90;99.90;;;;;;4984195;28;20137;-83
2023/03/29 10:09:29;;;;;;;8.75;3.00;;;8.90;99.90;;;;;;4987989;28;20208;-81
2023/03/29 10:12:01;;;;;;;7.55;3.13;;;8.90;99.90;;;;;;5003282;28;20073;-85
2023/03/29 10:14:31;;;;;;;8.63;3.20;;;9.00;99.90;;;;;;4988446;28;20426;-84
2023/03/29 10:16:57;;;;;;;7.38;4.05;;;9.00;99.90;;;;;;4970398;28;20092;-85
2023/03/29 10:19:29;;;;;;;10.38;4.60;;;9.10;99.90;;;;;;4985896;28;20085;-79
2023/03/29 10:21:57;;;;;;;7.20;3.05;;;9.20;99.90;;;;;;4985308;28;20081;-81
2023/03/29 10:24:25;;;;;;;7.82;3.55;;;9.30;99.90;;;;;;4969581;28;20042;-82
2023/03/29 10:26:56;;;;;;;11.70;3.75;;;9.30;99.90;;;;;;4987309;28;20050;-84
2023/03/29 10:29:25;;;;;;;8.63;3.63;;;9.40;99.90;;;;;;4986530;28;20038;-85
2023/03/29 10:31:51;;;;;;;8.52;3.63;;;9.50;99.90;;;;;;4987063;28;20112;-82
2023/03/29 10:34:18;;;;;;;8.70;2.80;;;9.50;99.90;;;;;;4985422;28;20046;-83
2023/03/29 10:37:07;;;;;;;9.95;3.38;;;9.60;99.90;;;;;;4983311;28;20079;-86
2023/03/29 10:39:33;;;;;;;10.05;3.90;;;9.60;99.90;;;;;;4985434;28;20042;-86
2023/03/29 10:42:02;;;;;;;8.75;3.25;;;9.60;99.90;;;;;;4981914;28;20545;-86
2023/03/29 10:44:33;;;;;;;10.23;3.95;;;9.70;99.90;;;;;;4986452;28;20042;-80
2023/03/29 10:47:18;;;;;;;11.15;4.10;;;9.70;99.90;;;;;;4985658;28;20073;-82
2023/03/29 10:49:49;;;;;;;9.90;3.92;;;9.70;99.90;;;;;;4985054;28;20053;-84
2023/03/29 10:52:16;;;;;;;15.23;4.60;;;9.70;99.90;;;;;;4985373;28;20045;-86
2023/03/29 10:54:42;;;;;;;11.75;4.72;;;9.80;99.90;;;;;;4986311;28;20057;-86
2023/03/29 10:57:14;;;;;;;13.35;4.65;;;9.80;99.90;;;;;;4986201;28;20038;-83
2023/03/29 11:00:22;;;;;;;8.75;3.88;;;9.80;99.90;;;;;;4985975;28;20042;-84
2023/03/29 11:03:25;;;;;;;9.43;3.83;;;9.90;99.90;;;;;;4985441;28;20436;-84
2023/03/29 11:06:23;;;;;;;16.30;5.60;;;10.00;99.90;;;;;;4985351;28;20069;-84
2023/03/29 11:09:18;;;;;;;8.18;3.67;;;10.00;99.90;;;;;;4978749;28;20061;-82
2023/03/29 11:11:58;;;;;;;7.10;3.63;;;10.10;99.90;;;;;;4951776;28;20453;-84
2023/03/29 11:14:34;;;;;;;9.55;3.88;;;10.10;99.90;;;;;;4971805;28;20132;-81
2023/03/29 11:17:49;;;;;;;14.25;4.80;;;10.10;99.90;;;;;;4984280;28;20112;-82
2023/03/29 11:20:29;;;;;;;12.20;4.32;;;10.20;99.90;;;;;;4976714;28;20149;-78
2023/03/29 11:23:30;;;;;;;12.98;4.22;;;10.10;99.90;;;;;;4985288;28;20046;-86
2023/03/29 11:26:26;;;;;;;10.05;4.40;;;10.20;99.90;;;;;;4964232;28;20057;-85
2023/03/29 11:29:21;;;;;;;11.80;4.53;;;10.20;99.90;;;;;;4986837;28;20046;-78
2023/03/29 11:32:06;;;;;;;12.50;4.70;;;10.20;99.90;;;;;;4966478;28;20129;-78
2023/03/29 11:34:56;;;;;;;8.73;4.13;;;10.30;99.90;;;;;;4980784;28;20166;-82
2023/03/29 11:37:30;;;;;;;10.82;3.95;;;10.30;99.90;;;;;;4985990;28;20125;-82
2023/03/29 11:40:27;;;;;;;12.48;4.47;;;10.30;99.90;;;;;;4986791;28;20046;-77
2023/03/29 11:42:56;;;;;;;13.70;4.13;;;10.40;99.90;;;;;;4970612;28;20490;-86
2023/03/29 11:45:33;;;;;;;12.52;4.80;;;10.40;99.90;;;;;;5003979;28;20053;-86
2023/03/29 11:48:03;;;;;;;8.93;4.43;;;10.50;99.90;;;;;;5009938;28;20089;-77
2023/03/29 11:50:42;;;;;;;18.13;5.00;;;10.50;99.90;;;;;;4984109;28;20122;-82
2023/03/29 11:53:15;;;;;;;10.48;3.63;;;10.60;99.90;;;;;;4983837;28;20035;-80
2023/03/29 11:55:42;;;;;;;11.95;4.35;;;10.60;99.90;;;;;;4985702;28;20042;-81
2023/03/29 11:58:21;;;;;;;9.82;3.97;;;10.70;99.90;;;;;;4985488;28;20113;-84
2023/03/29 12:01:11;;;;;;;8.27;4.32;;;10.70;99.90;;;;;;4984019;28;20068;-78
2023/03/29 12:03:48;;;;;;;10.88;4.95;;;10.80;99.90;;;;;;4967382;28;20331;-83
2023/03/29 12:06:49;;;;;;;11.40;4.75;;;10.80;99.90;;;;;;4982358;28;20138;-88
2023/03/29 12:09:30;;;;;;;10.63;4.65;;;10.80;99.90;;;;;;4950625;28;20284;-85
2023/03/29 12:12:12;;;;;;;13.95;4.55;;;10.90;99.90;;;;;;4983671;28;20058;-83
2023/03/29 12:14:59;;;;;;;11.17;4.43;;;11.00;99.90;;;;;;4983799;28;20050;-86
2023/03/29 12:17:41;;;;;;;12.68;4.68;;;11.00;99.90;;;;;;4983790;28;20300;-81
2023/03/29 12:20:20;;;;;;;7.95;4.40;;;11.00;99.90;;;;;;4981158;28;20050;-85
2023/03/29 12:22:47;;;;;;;10.15;4.10;;;11.00;99.90;;;;;;4982497;28;20411;-81
2023/03/29 12:25:17;;;;;;;12.45;4.93;;;11.10;99.90;;;;;;4984674;28;20050;-85
2023/03/29 12:28:10;;;;;;;10.43;4.43;;;11.00;99.90;;;;;;4984576;28;20043;-86
2023/03/29 12:30:42;;;;;;;14.73;5.07;;;11.10;99.90;;;;;;4967850;28;20049;-86
2023/03/29 12:33:28;;;;;;;17.13;5.25;;;11.10;99.90;;;;;;4982350;28;20074;-85
2023/03/29 12:36:07;;;;;;;11.90;4.32;;;11.10;99.90;;;;;;4984002;28;20050;-85
2023/03/29 12:38:34;;;;;;;12.52;5.00;;;11.20;99.90;;;;;;4967176;28;20053;-80
2023/03/29 12:41:03;;;;;;;15.68;5.07;;;11.20;99.90;;;;;;4985112;28;20120;-79
2023/03/29 12:43:37;;;;;;;11.10;4.07;;;11.20;99.90;;;;;;4985293;28;20175;-86
2023/03/29 12:46:07;;;;;;;10.57;4.03;;;11.30;99.90;;;;;;4984659;28;20101;-78
2023/03/29 12:48:36;;;;;;;12.15;4.53;;;11.30;99.90;;;;;;4999140;28;20042;-85
2023/03/29 12:51:18;;;;;;;11.40;4.25;;;11.20;99.90;;;;;;5078883;27;20914;-83
2023/03/29 12:53:54;;;;;;;10.30;3.88;;;11.30;99.90;;;;;;5080692;28;20040;-81
2023/03/29 12:56:37;;;;;;;11.82;5.88;;;11.30;99.90;;;;;;5079910;28;20048;-80
2023/03/29 12:59:09;;;;;;;10.75;4.38;;;11.40;99.90;;;;;;5078709;28;20115;-80
2023/03/29 13:01:39;;;;;;;9.00;4.55;;;11.40;99.90;;;;;;5080933;28;20041;-81
2023/03/29 13:04:19;;;;;;;11.85;4.63;;;11.40;99.90;;;;;;5079758;28;20097;-83
2023/03/29 13:06:48;;;;;;;12.93;4.43;;;11.50;99.90;;;;;;5077924;28;20127;-83
2023/03/29 13:09:22;;;;;;;10.70;5.05;;;11.50;99.90;;;;;;5079983;28;20044;-78
2023/03/29 13:11:54;;;;;;;12.82;4.90;;;11.50;99.90;;;;;;5080112;28;20067;-83
2023/03/29 13:14:23;;;;;;;9.20;4.25;;;11.50;99.90;;;;;;5079026;28;20152;-83